Canonbie, United Kingdom
Current Conditions -  °F | °C
As of 8:50 AM on Monday 20 Oct 2014 (Local Time) from EGOM Reporting Station
Light Rain Light Rain  
Wind Chill: 42°   Ceiling: 200
Heat Index: 48°   Visibility: 1.2mi
Dew Point: 48°   Wind: 18mph
Humidity: 100%   Direction: 250°WSW
Pressure: 29.77"   Gusts: NA
Location:  55.08°N, 2.94°W
Report Text: EGOM 200750Z 25016KT 2000 -RA BR OVC002 09/09 Q1008 AMB
Loading
Personal Weather Stations






























Interactive Weather Map
Tropical Storm Tracking
New forecast layout! Learn more

10-Day Weather Forecast

Advertisements
Track Severe Weather on mobile